JBU697 KJFK-KDEN
Flight info
| Callsign | JBU697 |
|---|---|
| Flight time | N/A |
| Altitude | 30000 |
| Route | RBV Q430 ZANDR J80 SPI/N0460F320 IRK OBH BRWRY LAWGR4 |
| Aircraft | A320/M-SDE3FGHIRWY/LB1 |
Departure
| Time | 2026-05-09 01:37 |
|---|---|
| Airport | John F. Kennedy International Airport (KJFK) |
Arrival
| Time | N/A |
|---|---|
| Airport | Denver International Airport (KDEN) |
| Time | Latitude | Longitude | Altitude | Speed | Heading |
|---|---|---|---|---|---|
| 2026-05-09 00:50 | 40.64527 | -73.77386 | 16 ft | 0 kts | 357° |
| 2026-05-09 01:26 | 40.64519 | -73.77386 | 16 ft | 4 kts | 360° |
| 2026-05-09 01:26 | 40.64493 | -73.77389 | 17 ft | 4 kts | 22° |
| 2026-05-09 01:26 | 40.64473 | -73.77408 | 16 ft | 4 kts | 74° |
| 2026-05-09 01:26 | 40.64471 | -73.77422 | 16 ft | 1 kts | 88° |
| 2026-05-09 01:27 | 40.64471 | -73.77423 | 16 ft | 0 kts | 88° |
| 2026-05-09 01:29 | 40.64472 | -73.77381 | 17 ft | 12 kts | 88° |
| 2026-05-09 01:30 | 40.64462 | -73.77217 | 16 ft | 21 kts | 116° |
| 2026-05-09 01:30 | 40.64436 | -73.77118 | 16 ft | 0 kts | 104° |
| 2026-05-09 01:30 | 40.64434 | -73.77108 | 16 ft | 4 kts | 103° |
| 2026-05-09 01:30 | 40.64421 | -73.77036 | 16 ft | 11 kts | 103° |
| 2026-05-09 01:31 | 40.64392 | -73.76919 | 17 ft | 12 kts | 118° |
| 2026-05-09 01:31 | 40.64335 | -73.76885 | 16 ft | 10 kts | 175° |
| 2026-05-09 01:31 | 40.64263 | -73.76885 | 17 ft | 11 kts | 181° |
| 2026-05-09 01:31 | 40.64187 | -73.76888 | 17 ft | 13 kts | 183° |
| 2026-05-09 01:32 | 40.64079 | -73.76903 | 16 ft | 18 kts | 187° |
| 2026-05-09 01:32 | 40.63949 | -73.76912 | 16 ft | 19 kts | 181° |
| 2026-05-09 01:32 | 40.63809 | -73.76914 | 15 ft | 21 kts | 180° |
| 2026-05-09 01:32 | 40.63662 | -73.76916 | 15 ft | 21 kts | 182° |
| 2026-05-09 01:33 | 40.63517 | -73.76921 | 15 ft | 19 kts | 183° |
| 2026-05-09 01:33 | 40.63382 | -73.76940 | 15 ft | 20 kts | 186° |
| 2026-05-09 01:33 | 40.63237 | -73.76948 | 15 ft | 22 kts | 180° |
| 2026-05-09 01:33 | 40.63104 | -73.76973 | 16 ft | 17 kts | 198° |
| 2026-05-09 01:34 | 40.63021 | -73.77029 | 16 ft | 11 kts | 208° |
| 2026-05-09 01:34 | 40.62947 | -73.77086 | 16 ft | 13 kts | 211° |
| 2026-05-09 01:34 | 40.62889 | -73.77131 | 16 ft | 0 kts | 211° |
| 2026-05-09 01:35 | 40.62852 | -73.77160 | 17 ft | 12 kts | 211° |
| 2026-05-09 01:35 | 40.62835 | -73.77257 | 17 ft | 12 kts | 300° |
| 2026-05-09 01:36 | 40.62845 | -73.77278 | 16 ft | 0 kts | 301° |
| 2026-05-09 01:36 | 40.62846 | -73.77281 | 17 ft | 4 kts | 301° |
| 2026-05-09 01:36 | 40.62976 | -73.77569 | 16 ft | 77 kts | 301° |
| 2026-05-09 01:37 | 40.63376 | -73.78452 | 19 ft | 143 kts | 301° |
| 2026-05-09 01:37 | 40.63977 | -73.79772 | 85 ft | 189 kts | 301° |
| 2026-05-09 01:37 | 40.64690 | -73.81339 | 482 ft | 203 kts | 299° |
| 2026-05-09 01:37 | 40.65343 | -73.83014 | 890 ft | 213 kts | 287° |
| 2026-05-09 01:38 | 40.65472 | -73.84930 | 1526 ft | 213 kts | 253° |
| 2026-05-09 01:38 | 40.64635 | -73.86496 | 2190 ft | 214 kts | 216° |
| 2026-05-09 01:38 | 40.63320 | -73.87408 | 2900 ft | 215 kts | 205° |
| 2026-05-09 01:38 | 40.61934 | -73.88138 | 3620 ft | 214 kts | 205° |
| 2026-05-09 01:39 | 40.60553 | -73.88885 | 4322 ft | 214 kts | 208° |
| 2026-05-09 01:39 | 40.59268 | -73.89858 | 4928 ft | 217 kts | 222° |
| 2026-05-09 01:39 | 40.58070 | -73.91221 | 5177 ft | 239 kts | 227° |
| 2026-05-09 01:39 | 40.56846 | -73.92791 | 5743 ft | 248 kts | 228° |
| 2026-05-09 01:40 | 40.55461 | -73.94186 | 6519 ft | 254 kts | 217° |
| 2026-05-09 01:40 | 40.53953 | -73.95405 | 7297 ft | 254 kts | 217° |
| 2026-05-09 01:40 | 40.52465 | -73.96622 | 8067 ft | 254 kts | 218° |
| 2026-05-09 01:40 | 40.50957 | -73.97857 | 8844 ft | 255 kts | 218° |
| 2026-05-09 01:41 | 40.49444 | -73.99094 | 9612 ft | 256 kts | 219° |
| 2026-05-09 01:41 | 40.47929 | -74.00334 | 10244 ft | 261 kts | 219° |
| 2026-05-09 01:41 | 40.46320 | -74.01661 | 10387 ft | 283 kts | 219° |
| 2026-05-09 01:41 | 40.44608 | -74.03073 | 10511 ft | 304 kts | 218° |
| 2026-05-09 01:42 | 40.42759 | -74.04592 | 10660 ft | 322 kts | 218° |
| 2026-05-09 01:42 | 40.40829 | -74.06161 | 11088 ft | 330 kts | 218° |
| 2026-05-09 01:42 | 40.38924 | -74.07873 | 11618 ft | 329 kts | 228° |
| 2026-05-09 01:42 | 40.37511 | -74.10199 | 12134 ft | 326 kts | 244° |
| 2026-05-09 01:43 | 40.36371 | -74.12794 | 12671 ft | 329 kts | 244° |
| 2026-05-09 01:43 | 40.35226 | -74.15420 | 13226 ft | 333 kts | 244° |
| 2026-05-09 01:43 | 40.34081 | -74.18046 | 13781 ft | 337 kts | 245° |
| 2026-05-09 01:43 | 40.32910 | -74.20730 | 14279 ft | 341 kts | 245° |
| 2026-05-09 01:44 | 40.31723 | -74.23443 | 14788 ft | 343 kts | 245° |
| 2026-05-09 01:44 | 40.30528 | -74.26163 | 15317 ft | 345 kts | 245° |
| 2026-05-09 01:44 | 40.29323 | -74.28906 | 15827 ft | 348 kts | 245° |
| 2026-05-09 01:44 | 40.28112 | -74.31664 | 16337 ft | 350 kts | 245° |
| 2026-05-09 01:45 | 40.26890 | -74.34447 | 16861 ft | 353 kts | 245° |
| 2026-05-09 01:45 | 40.25661 | -74.37242 | 17409 ft | 355 kts | 245° |
| 2026-05-09 01:45 | 40.24417 | -74.40065 | 17943 ft | 358 kts | 245° |
| 2026-05-09 01:45 | 40.23153 | -74.42923 | 18469 ft | 361 kts | 245° |
| 2026-05-09 01:46 | 40.21918 | -74.45712 | 18950 ft | 363 kts | 245° |
| 2026-05-09 01:46 | 40.20797 | -74.48658 | 19457 ft | 359 kts | 254° |
| 2026-05-09 01:46 | 40.20111 | -74.51775 | 19963 ft | 355 kts | 263° |
| 2026-05-09 01:46 | 40.19814 | -74.54978 | 20474 ft | 354 kts | 267° |
| 2026-05-09 01:47 | 40.19584 | -74.58192 | 20962 ft | 355 kts | 268° |
| 2026-05-09 01:47 | 40.19395 | -74.61415 | 21403 ft | 355 kts | 269° |
| 2026-05-09 01:47 | 40.19232 | -74.64603 | 21868 ft | 356 kts | 269° |
| 2026-05-09 01:47 | 40.19074 | -74.67841 | 22309 ft | 356 kts | 269° |
| 2026-05-09 01:48 | 40.18916 | -74.71077 | 22730 ft | 357 kts | 269° |
| 2026-05-09 01:48 | 40.18752 | -74.74333 | 23150 ft | 358 kts | 269° |
| 2026-05-09 01:48 | 40.18586 | -74.77594 | 23547 ft | 359 kts | 269° |
| 2026-05-09 01:48 | 40.18415 | -74.80863 | 23878 ft | 360 kts | 269° |
| 2026-05-09 01:49 | 40.18240 | -74.84144 | 24199 ft | 362 kts | 269° |
| 2026-05-09 01:49 | 40.18062 | -74.87424 | 24507 ft | 363 kts | 269° |
| 2026-05-09 01:49 | 40.17883 | -74.90683 | 24818 ft | 364 kts | 269° |
| 2026-05-09 01:49 | 40.17700 | -74.93998 | 25134 ft | 365 kts | 269° |
| 2026-05-09 01:50 | 40.17516 | -74.97323 | 25448 ft | 366 kts | 269° |
| 2026-05-09 01:50 | 40.17331 | -75.00654 | 25749 ft | 367 kts | 269° |
| 2026-05-09 01:50 | 40.17144 | -75.03994 | 26074 ft | 368 kts | 269° |
| 2026-05-09 01:50 | 40.16959 | -75.07287 | 26515 ft | 366 kts | 268° |
| 2026-05-09 01:51 | 40.16770 | -75.10596 | 26973 ft | 363 kts | 268° |
| 2026-05-09 01:51 | 40.16580 | -75.13884 | 27442 ft | 361 kts | 268° |
| 2026-05-09 01:51 | 40.16394 | -75.17153 | 27888 ft | 359 kts | 268° |
| 2026-05-09 01:51 | 40.16207 | -75.20413 | 28335 ft | 358 kts | 268° |
| 2026-05-09 01:52 | 40.16021 | -75.23661 | 28790 ft | 356 kts | 268° |
| 2026-05-09 01:52 | 40.15836 | -75.26886 | 29236 ft | 354 kts | 268° |
| 2026-05-09 01:52 | 40.15652 | -75.30044 | 29692 ft | 352 kts | 268° |
| 2026-05-09 01:52 | 40.15464 | -75.33241 | 29971 ft | 352 kts | 268° |
| 2026-05-09 01:53 | 40.15088 | -75.39755 | 29999 ft | 365 kts | 268° |
| 2026-05-09 01:53 | 40.14698 | -75.46365 | 29987 ft | 368 kts | 268° |
| 2026-05-09 01:54 | 40.14299 | -75.53040 | 29987 ft | 368 kts | 268° |
| 2026-05-09 01:54 | 40.13896 | -75.59734 | 29991 ft | 368 kts | 268° |
| 2026-05-09 01:55 | 40.13487 | -75.66383 | 29984 ft | 369 kts | 268° |
| 2026-05-09 01:55 | 40.13069 | -75.73068 | 29982 ft | 369 kts | 268° |
| 2026-05-09 01:56 | 40.12651 | -75.79765 | 29990 ft | 368 kts | 268° |
| 2026-05-09 01:56 | 40.12236 | -75.86405 | 29987 ft | 368 kts | 268° |
| 2026-05-09 01:57 | 40.11814 | -75.93095 | 29988 ft | 368 kts | 268° |
| 2026-05-09 01:57 | 40.11385 | -75.99734 | 29981 ft | 369 kts | 268° |
| 2026-05-09 01:58 | 40.10952 | -76.06422 | 29960 ft | 369 kts | 268° |
| 2026-05-09 01:58 | 40.10520 | -76.13110 | 29964 ft | 369 kts | 268° |
| 2026-05-09 01:59 | 40.10082 | -76.19760 | 29977 ft | 369 kts | 267° |
| 2026-05-09 01:59 | 40.09634 | -76.26444 | 29972 ft | 369 kts | 267° |
| 2026-05-09 02:00 | 40.09188 | -76.33092 | 29974 ft | 369 kts | 267° |
| 2026-05-09 02:00 | 40.08740 | -76.39774 | 29972 ft | 369 kts | 267° |
| 2026-05-09 02:01 | 40.08287 | -76.46456 | 29966 ft | 369 kts | 267° |
| 2026-05-09 02:01 | 40.07831 | -76.53090 | 29961 ft | 369 kts | 267° |
| 2026-05-09 02:02 | 40.07365 | -76.59770 | 29953 ft | 368 kts | 267° |
| 2026-05-09 02:02 | 40.06978 | -76.65314 | 29952 ft | 368 kts | 267° |
| 2026-05-09 02:03 | 40.06433 | -76.73066 | 29957 ft | 368 kts | 267° |
| 2026-05-09 02:03 | 40.06042 | -76.78607 | 29956 ft | 368 kts | 267° |
| 2026-05-09 02:04 | 40.05569 | -76.85273 | 29975 ft | 368 kts | 267° |
| 2026-05-09 02:04 | 40.05087 | -76.91944 | 29972 ft | 368 kts | 267° |
| 2026-05-09 02:05 | 40.04607 | -76.98546 | 29974 ft | 368 kts | 267° |
| 2026-05-09 02:05 | 40.04121 | -77.05213 | 29969 ft | 368 kts | 267° |
| 2026-05-09 02:06 | 40.03630 | -77.11869 | 29967 ft | 368 kts | 267° |
| 2026-05-09 02:07 | 40.02888 | -77.21822 | 29961 ft | 368 kts | 267° |
| 2026-05-09 02:07 | 40.02390 | -77.28487 | 29951 ft | 368 kts | 267° |
| 2026-05-09 02:08 | 40.01888 | -77.35138 | 29951 ft | 368 kts | 267° |
| 2026-05-09 02:08 | 40.01380 | -77.41749 | 29957 ft | 368 kts | 267° |
| 2026-05-09 02:09 | 40.00866 | -77.48413 | 29956 ft | 368 kts | 267° |
| 2026-05-09 02:09 | 40.00345 | -77.55067 | 29952 ft | 368 kts | 267° |
| 2026-05-09 02:10 | 39.99831 | -77.61682 | 29956 ft | 368 kts | 267° |
| 2026-05-09 02:10 | 39.99309 | -77.68346 | 29951 ft | 368 kts | 267° |
| 2026-05-09 02:11 | 39.98783 | -77.74999 | 29954 ft | 368 kts | 266° |
| 2026-05-09 02:11 | 39.98247 | -77.81616 | 29951 ft | 369 kts | 266° |
| 2026-05-09 02:12 | 39.97706 | -77.88275 | 29952 ft | 369 kts | 266° |
| 2026-05-09 02:12 | 39.97175 | -77.94945 | 29937 ft | 368 kts | 269° |
| 2026-05-09 02:13 | 39.97289 | -78.01597 | 29942 ft | 367 kts | 274° |
| 2026-05-09 02:13 | 39.97473 | -78.08232 | 29941 ft | 367 kts | 273° |
| 2026-05-09 02:14 | 39.97654 | -78.14884 | 29946 ft | 367 kts | 273° |
| 2026-05-09 02:14 | 39.97837 | -78.21559 | 29946 ft | 368 kts | 273° |
| 2026-05-09 02:15 | 39.98006 | -78.28242 | 29950 ft | 368 kts | 273° |
| 2026-05-09 02:15 | 39.98167 | -78.34929 | 29954 ft | 368 kts | 273° |
| 2026-05-09 02:16 | 39.98327 | -78.41615 | 29961 ft | 369 kts | 273° |
| 2026-05-09 02:16 | 39.98492 | -78.48264 | 29957 ft | 369 kts | 273° |
| 2026-05-09 02:17 | 39.98657 | -78.54964 | 29957 ft | 369 kts | 272° |
| 2026-05-09 02:17 | 39.98810 | -78.61678 | 29954 ft | 370 kts | 272° |
| 2026-05-09 02:18 | 39.98965 | -78.68386 | 29955 ft | 370 kts | 272° |
| 2026-05-09 02:18 | 39.99105 | -78.74751 | 29949 ft | 370 kts | 272° |
| 2026-05-09 02:19 | 39.99242 | -78.81470 | 29944 ft | 370 kts | 272° |
| 2026-05-09 02:19 | 39.99377 | -78.88189 | 29945 ft | 371 kts | 272° |
| 2026-05-09 02:20 | 39.99511 | -78.94934 | 29942 ft | 371 kts | 272° |
| 2026-05-09 02:20 | 39.99642 | -79.01677 | 29944 ft | 372 kts | 272° |
| 2026-05-09 02:21 | 39.99774 | -79.08442 | 29946 ft | 373 kts | 272° |
| 2026-05-09 02:21 | 39.99897 | -79.15157 | 29944 ft | 373 kts | 272° |
| 2026-05-09 02:22 | 40.00018 | -79.21944 | 29946 ft | 373 kts | 272° |
| 2026-05-09 02:22 | 40.00134 | -79.28720 | 29942 ft | 374 kts | 272° |
| 2026-05-09 02:23 | 40.00250 | -79.35505 | 29946 ft | 374 kts | 272° |
| 2026-05-09 02:23 | 40.00356 | -79.42306 | 29950 ft | 374 kts | 271° |
| 2026-05-09 02:24 | 40.00463 | -79.49055 | 29955 ft | 374 kts | 271° |
| 2026-05-09 02:24 | 40.00568 | -79.55867 | 29961 ft | 374 kts | 271° |
| 2026-05-09 02:25 | 40.00667 | -79.62625 | 29962 ft | 374 kts | 271° |
| 2026-05-09 02:25 | 40.00757 | -79.69432 | 29963 ft | 375 kts | 271° |
| 2026-05-09 02:26 | 40.00843 | -79.76195 | 29960 ft | 375 kts | 271° |
| 2026-05-09 02:26 | 40.00925 | -79.82999 | 29953 ft | 375 kts | 271° |
| 2026-05-09 02:27 | 40.01002 | -79.89806 | 29949 ft | 375 kts | 271° |
| 2026-05-09 02:27 | 40.01075 | -79.96612 | 29945 ft | 375 kts | 271° |
| 2026-05-09 02:28 | 40.01147 | -80.03428 | 29954 ft | 375 kts | 271° |
| 2026-05-09 02:28 | 40.01221 | -80.10209 | 29958 ft | 375 kts | 271° |
| 2026-05-09 02:29 | 40.01293 | -80.17030 | 29967 ft | 376 kts | 271° |
| 2026-05-09 02:29 | 40.01353 | -80.23864 | 29971 ft | 376 kts | 271° |
| 2026-05-09 02:30 | 40.01408 | -80.30692 | 29971 ft | 376 kts | 271° |
| 2026-05-09 02:30 | 40.01458 | -80.37501 | 29971 ft | 377 kts | 271° |
| 2026-05-09 02:31 | 40.01508 | -80.44350 | 29964 ft | 377 kts | 271° |
| 2026-05-09 02:31 | 40.01556 | -80.51154 | 29943 ft | 377 kts | 271° |
| 2026-05-09 02:32 | 40.01598 | -80.58014 | 29939 ft | 377 kts | 270° |
| 2026-05-09 02:32 | 40.01640 | -80.64868 | 29943 ft | 378 kts | 270° |
| 2026-05-09 02:33 | 40.01671 | -80.71731 | 29939 ft | 378 kts | 270° |
| 2026-05-09 02:33 | 40.01692 | -80.78593 | 29937 ft | 378 kts | 270° |
| 2026-05-09 02:34 | 40.01689 | -80.85416 | 29934 ft | 378 kts | 270° |
| 2026-05-09 02:34 | 40.01591 | -80.92300 | 29934 ft | 379 kts | 269° |
| 2026-05-09 02:35 | 40.01464 | -80.99175 | 29932 ft | 379 kts | 269° |
| 2026-05-09 02:35 | 40.01353 | -81.05999 | 29924 ft | 379 kts | 269° |
| 2026-05-09 02:36 | 40.01250 | -81.12881 | 29930 ft | 379 kts | 269° |
| 2026-05-09 02:36 | 40.01138 | -81.19752 | 29932 ft | 379 kts | 269° |
| 2026-05-09 02:37 | 40.01023 | -81.26634 | 29936 ft | 379 kts | 269° |
| 2026-05-09 02:37 | 40.00906 | -81.33467 | 29941 ft | 379 kts | 269° |
| 2026-05-09 02:38 | 40.00774 | -81.40361 | 29948 ft | 379 kts | 269° |
| 2026-05-09 02:38 | 40.00644 | -81.47242 | 29951 ft | 379 kts | 269° |
| 2026-05-09 02:39 | 40.00510 | -81.54080 | 29952 ft | 379 kts | 269° |
| 2026-05-09 02:39 | 40.00372 | -81.60961 | 29950 ft | 379 kts | 269° |
| 2026-05-09 02:40 | 40.00228 | -81.67846 | 29949 ft | 379 kts | 269° |
| 2026-05-09 02:40 | 40.00081 | -81.74725 | 29939 ft | 379 kts | 269° |
| 2026-05-09 02:41 | 39.99940 | -81.81605 | 29939 ft | 379 kts | 269° |
| 2026-05-09 02:41 | 39.99788 | -81.88443 | 29939 ft | 379 kts | 268° |
| 2026-05-09 02:42 | 39.99627 | -81.95335 | 29942 ft | 379 kts | 268° |
| 2026-05-09 02:42 | 39.99463 | -82.02170 | 29937 ft | 379 kts | 268° |
| 2026-05-09 02:43 | 39.99299 | -82.09069 | 29934 ft | 379 kts | 268° |
| 2026-05-09 02:43 | 39.99132 | -82.15963 | 29922 ft | 379 kts | 268° |
| 2026-05-09 02:44 | 39.98959 | -82.22800 | 29923 ft | 379 kts | 268° |
| 2026-05-09 02:44 | 39.98776 | -82.29674 | 29930 ft | 379 kts | 268° |
| 2026-05-09 02:45 | 39.98619 | -82.35396 | 29930 ft | 379 kts | 268° |
| 2026-05-09 02:45 | 39.98434 | -82.42270 | 29926 ft | 379 kts | 268° |
| 2026-05-09 02:46 | 39.98244 | -82.49119 | 29930 ft | 379 kts | 268° |
| 2026-05-09 02:46 | 39.98053 | -82.55998 | 29926 ft | 380 kts | 268° |
| 2026-05-09 02:47 | 39.97855 | -82.62895 | 29925 ft | 380 kts | 268° |
| 2026-05-09 02:47 | 39.97652 | -82.69783 | 29919 ft | 380 kts | 268° |
| 2026-05-09 02:48 | 39.97448 | -82.76632 | 29919 ft | 380 kts | 268° |
| 2026-05-09 02:48 | 39.97239 | -82.83522 | 29913 ft | 380 kts | 267° |
| 2026-05-09 02:49 | 39.97021 | -82.90427 | 29918 ft | 380 kts | 267° |
| 2026-05-09 02:49 | 39.96801 | -82.97274 | 29925 ft | 380 kts | 267° |
| 2026-05-09 02:50 | 39.96586 | -83.04179 | 29952 ft | 380 kts | 267° |
| 2026-05-09 02:50 | 39.96436 | -83.11081 | 29954 ft | 380 kts | 268° |
| 2026-05-09 02:51 | 39.96331 | -83.17929 | 29952 ft | 379 kts | 268° |
| 2026-05-09 02:51 | 39.96161 | -83.24814 | 29953 ft | 379 kts | 267° |
| 2026-05-09 02:52 | 39.95909 | -83.31694 | 29950 ft | 379 kts | 266° |
| 2026-05-09 02:52 | 39.95656 | -83.38512 | 29954 ft | 379 kts | 267° |
| 2026-05-09 02:53 | 39.95416 | -83.45372 | 29955 ft | 378 kts | 267° |
| 2026-05-09 02:53 | 39.95175 | -83.52226 | 29957 ft | 378 kts | 267° |
| 2026-05-09 02:54 | 39.94932 | -83.59094 | 29959 ft | 378 kts | 267° |
| 2026-05-09 02:54 | 39.94683 | -83.65952 | 29918 ft | 378 kts | 267° |
| 2026-05-09 02:55 | 39.94427 | -83.72752 | 29920 ft | 378 kts | 267° |
| 2026-05-09 02:55 | 39.94164 | -83.79617 | 29918 ft | 378 kts | 267° |
| 2026-05-09 02:56 | 39.93903 | -83.86419 | 29915 ft | 378 kts | 267° |
| 2026-05-09 02:56 | 39.93639 | -83.93267 | 29918 ft | 378 kts | 267° |
| 2026-05-09 02:57 | 39.93369 | -84.00114 | 29920 ft | 378 kts | 267° |
| 2026-05-09 02:57 | 39.93097 | -84.06958 | 29919 ft | 378 kts | 267° |
| 2026-05-09 02:58 | 39.92822 | -84.13763 | 29938 ft | 378 kts | 267° |
| 2026-05-09 02:58 | 39.92535 | -84.20624 | 29937 ft | 378 kts | 266° |
| 2026-05-09 02:59 | 39.92240 | -84.27480 | 29940 ft | 378 kts | 266° |
| 2026-05-09 02:59 | 39.91946 | -84.34339 | 29936 ft | 378 kts | 266° |
| 2026-05-09 03:00 | 39.91656 | -84.41151 | 29931 ft | 379 kts | 266° |
| 2026-05-09 03:00 | 39.91350 | -84.48009 | 29926 ft | 379 kts | 266° |
| 2026-05-09 03:01 | 39.91046 | -84.54864 | 29922 ft | 379 kts | 266° |
| 2026-05-09 03:01 | 39.90742 | -84.61682 | 29928 ft | 379 kts | 266° |
| 2026-05-09 03:02 | 39.90435 | -84.68533 | 29934 ft | 378 kts | 266° |
| 2026-05-09 03:02 | 39.90118 | -84.75382 | 29939 ft | 378 kts | 266° |
| 2026-05-09 03:03 | 39.89799 | -84.82224 | 29943 ft | 378 kts | 266° |
| 2026-05-09 03:03 | 39.89473 | -84.89078 | 29944 ft | 378 kts | 266° |
| 2026-05-09 03:04 | 39.89144 | -84.95874 | 29932 ft | 378 kts | 266° |
| 2026-05-09 03:04 | 39.88809 | -85.02712 | 29929 ft | 378 kts | 266° |
| 2026-05-09 03:05 | 39.88471 | -85.09548 | 29920 ft | 378 kts | 266° |
| 2026-05-09 03:05 | 39.88132 | -85.16387 | 29925 ft | 378 kts | 266° |
| 2026-05-09 03:06 | 39.87784 | -85.23246 | 29923 ft | 378 kts | 265° |
| 2026-05-09 03:06 | 39.87432 | -85.30045 | 29930 ft | 379 kts | 265° |
| 2026-05-09 03:07 | 39.87084 | -85.36889 | 29924 ft | 379 kts | 265° |
| 2026-05-09 03:07 | 39.86733 | -85.43750 | 29923 ft | 379 kts | 265° |
| 2026-05-09 03:08 | 39.86372 | -85.50592 | 29914 ft | 379 kts | 265° |
| 2026-05-09 03:08 | 39.86002 | -85.57454 | 29909 ft | 380 kts | 265° |
| 2026-05-09 03:09 | 39.85635 | -85.64277 | 29896 ft | 380 kts | 265° |
| 2026-05-09 03:09 | 39.85262 | -85.71157 | 29897 ft | 380 kts | 265° |
| 2026-05-09 03:10 | 39.84890 | -85.77991 | 29900 ft | 380 kts | 265° |
| 2026-05-09 03:10 | 39.84509 | -85.84884 | 29900 ft | 381 kts | 265° |
| 2026-05-09 03:11 | 39.84115 | -85.91769 | 29897 ft | 381 kts | 265° |
| 2026-05-09 03:11 | 39.83724 | -85.98616 | 29902 ft | 381 kts | 265° |
| 2026-05-09 03:12 | 39.83334 | -86.05517 | 29895 ft | 382 kts | 265° |
| 2026-05-09 03:12 | 39.82931 | -86.12416 | 29898 ft | 382 kts | 265° |
| 2026-05-09 03:13 | 39.82317 | -86.22728 | 29889 ft | 382 kts | 265° |
| 2026-05-09 03:13 | 39.81905 | -86.29646 | 29890 ft | 383 kts | 265° |
| 2026-05-09 03:14 | 39.81504 | -86.36512 | 29887 ft | 383 kts | 267° |
| 2026-05-09 03:14 | 39.81606 | -86.43237 | 29889 ft | 384 kts | 270° |
| 2026-05-09 03:15 | 39.81760 | -86.50184 | 29889 ft | 384 kts | 270° |
| 2026-05-09 03:15 | 39.81910 | -86.57135 | 29888 ft | 384 kts | 270° |
| 2026-05-09 03:16 | 39.82046 | -86.64053 | 29897 ft | 385 kts | 269° |
| 2026-05-09 03:16 | 39.82172 | -86.71032 | 29894 ft | 385 kts | 269° |
| 2026-05-09 03:17 | 39.82297 | -86.78018 | 29887 ft | 385 kts | 269° |
| 2026-05-09 03:17 | 39.82425 | -86.84954 | 29886 ft | 385 kts | 269° |
| 2026-05-09 03:18 | 39.82550 | -86.91937 | 29889 ft | 385 kts | 269° |
| 2026-05-09 03:18 | 39.82666 | -86.98926 | 29885 ft | 385 kts | 269° |
| 2026-05-09 03:19 | 39.82774 | -87.05856 | 29875 ft | 386 kts | 269° |
| 2026-05-09 03:19 | 39.82880 | -87.12841 | 29874 ft | 386 kts | 269° |
| 2026-05-09 03:20 | 39.82993 | -87.19823 | 29872 ft | 386 kts | 269° |
| 2026-05-09 03:20 | 39.83096 | -87.26768 | 29868 ft | 386 kts | 269° |
| 2026-05-09 03:21 | 39.83189 | -87.33756 | 29874 ft | 386 kts | 268° |
| 2026-05-09 03:21 | 39.83284 | -87.40741 | 29871 ft | 385 kts | 268° |
| 2026-05-09 03:22 | 39.83369 | -87.47715 | 29878 ft | 386 kts | 268° |
| 2026-05-09 03:22 | 39.83447 | -87.54658 | 29883 ft | 386 kts | 268° |
| 2026-05-09 03:23 | 39.83527 | -87.61645 | 29887 ft | 386 kts | 268° |
| 2026-05-09 03:23 | 39.83605 | -87.68648 | 29889 ft | 386 kts | 268° |
| 2026-05-09 03:24 | 39.83681 | -87.75646 | 29897 ft | 386 kts | 268° |
| 2026-05-09 03:24 | 39.83744 | -87.82614 | 29890 ft | 386 kts | 268° |
| 2026-05-09 03:25 | 39.83806 | -87.89616 | 29884 ft | 386 kts | 268° |
| 2026-05-09 03:25 | 39.83861 | -87.96618 | 29879 ft | 386 kts | 268° |
| 2026-05-09 03:26 | 39.83915 | -88.03567 | 29871 ft | 386 kts | 268° |
| 2026-05-09 03:26 | 39.83969 | -88.10578 | 29861 ft | 386 kts | 268° |
| 2026-05-09 03:27 | 39.84006 | -88.16386 | 29864 ft | 386 kts | 268° |
| 2026-05-09 03:27 | 39.84052 | -88.24516 | 29856 ft | 386 kts | 268° |
| 2026-05-09 03:28 | 39.84086 | -88.30369 | 29859 ft | 386 kts | 268° |
| 2026-05-09 03:28 | 39.84125 | -88.37329 | 29861 ft | 386 kts | 268° |
| 2026-05-09 03:29 | 39.84151 | -88.44332 | 29864 ft | 386 kts | 267° |
| 2026-05-09 03:29 | 39.84180 | -88.51292 | 29874 ft | 386 kts | 267° |
| 2026-05-09 03:30 | 39.84206 | -88.58288 | 29871 ft | 386 kts | 267° |
| 2026-05-09 03:30 | 39.84221 | -88.65246 | 29877 ft | 386 kts | 267° |
| 2026-05-09 03:31 | 39.84233 | -88.72233 | 29884 ft | 386 kts | 267° |
| 2026-05-09 03:31 | 39.84246 | -88.79222 | 29889 ft | 386 kts | 267° |
| 2026-05-09 03:32 | 39.84251 | -88.86169 | 29885 ft | 386 kts | 267° |
| 2026-05-09 03:32 | 39.84248 | -88.93166 | 29889 ft | 386 kts | 267° |
| 2026-05-09 03:33 | 39.84241 | -89.00165 | 29885 ft | 386 kts | 267° |
| 2026-05-09 03:33 | 39.84231 | -89.07111 | 29882 ft | 386 kts | 267° |
| 2026-05-09 03:34 | 39.84221 | -89.14100 | 29876 ft | 386 kts | 267° |
| 2026-05-09 03:34 | 39.84201 | -89.21086 | 29872 ft | 386 kts | 267° |
| 2026-05-09 03:35 | 39.84177 | -89.28079 | 29863 ft | 386 kts | 267° |
| 2026-05-09 03:35 | 39.84154 | -89.35086 | 29864 ft | 387 kts | 267° |
| 2026-05-09 03:36 | 39.84125 | -89.42038 | 29864 ft | 387 kts | 266° |
| 2026-05-09 03:36 | 39.84084 | -89.49056 | 29867 ft | 387 kts | 266° |
| 2026-05-09 03:37 | 39.84048 | -89.56067 | 29867 ft | 387 kts | 266° |
| 2026-05-09 03:37 | 39.84003 | -89.63056 | 29863 ft | 388 kts | 266° |
| 2026-05-09 03:38 | 39.84232 | -89.70093 | 29861 ft | 392 kts | 274° |
| 2026-05-09 03:38 | 39.85041 | -89.77122 | 29864 ft | 392 kts | 275° |
| 2026-05-09 03:39 | 39.85844 | -89.84109 | 29864 ft | 392 kts | 274° |
| 2026-05-09 03:39 | 39.86636 | -89.91153 | 29859 ft | 393 kts | 274° |
| 2026-05-09 03:40 | 39.87422 | -89.98205 | 29856 ft | 393 kts | 274° |
| 2026-05-09 03:40 | 39.88195 | -90.05214 | 29868 ft | 393 kts | 274° |
| 2026-05-09 03:41 | 39.88975 | -90.12277 | 29872 ft | 394 kts | 274° |
| 2026-05-09 03:41 | 39.89749 | -90.19307 | 29870 ft | 394 kts | 274° |
| 2026-05-09 03:42 | 39.90527 | -90.26389 | 29868 ft | 395 kts | 275° |
| 2026-05-09 03:42 | 39.91307 | -90.33484 | 29861 ft | 395 kts | 275° |
| 2026-05-09 03:43 | 39.92073 | -90.40551 | 29857 ft | 396 kts | 275° |
| 2026-05-09 03:43 | 39.92831 | -90.47679 | 29855 ft | 397 kts | 275° |
| 2026-05-09 03:44 | 39.93586 | -90.54787 | 29845 ft | 397 kts | 275° |
| 2026-05-09 03:44 | 39.94344 | -90.61937 | 29843 ft | 398 kts | 275° |
| 2026-05-09 03:45 | 39.95105 | -90.69100 | 29846 ft | 398 kts | 275° |
| 2026-05-09 03:45 | 39.95853 | -90.76219 | 29843 ft | 399 kts | 275° |
| 2026-05-09 03:46 | 39.96600 | -90.83397 | 29843 ft | 399 kts | 275° |
| 2026-05-09 03:46 | 39.97349 | -90.90584 | 29847 ft | 400 kts | 275° |
| 2026-05-09 03:47 | 39.98088 | -90.97748 | 29854 ft | 400 kts | 275° |
| 2026-05-09 03:47 | 39.98824 | -91.04950 | 29860 ft | 400 kts | 275° |
| 2026-05-09 03:48 | 39.99560 | -91.12167 | 29862 ft | 401 kts | 276° |
| 2026-05-09 03:48 | 40.00284 | -91.19342 | 29860 ft | 401 kts | 276° |
| 2026-05-09 03:49 | 40.01013 | -91.26561 | 29861 ft | 401 kts | 276° |
| 2026-05-09 03:49 | 40.01735 | -91.33798 | 29856 ft | 402 kts | 276° |
| 2026-05-09 03:50 | 40.02443 | -91.40997 | 29850 ft | 402 kts | 276° |
| 2026-05-09 03:50 | 40.03157 | -91.48247 | 29842 ft | 403 kts | 277° |
| 2026-05-09 03:51 | 40.03869 | -91.55498 | 29838 ft | 403 kts | 277° |
| 2026-05-09 03:51 | 40.04578 | -91.62794 | 29832 ft | 404 kts | 277° |
| 2026-05-09 03:52 | 40.05276 | -91.70049 | 29829 ft | 405 kts | 278° |
| 2026-05-09 03:52 | 40.05977 | -91.77365 | 29826 ft | 406 kts | 278° |
| 2026-05-09 03:53 | 40.06679 | -91.84691 | 29826 ft | 406 kts | 278° |
| 2026-05-09 03:53 | 40.07368 | -91.91980 | 29831 ft | 407 kts | 279° |
| 2026-05-09 03:54 | 40.08059 | -91.99336 | 29823 ft | 408 kts | 279° |
| 2026-05-09 03:54 | 40.08746 | -92.06695 | 29826 ft | 408 kts | 279° |
| 2026-05-09 03:55 | 40.09430 | -92.14072 | 29837 ft | 409 kts | 280° |
| 2026-05-09 03:55 | 40.10112 | -92.21422 | 29840 ft | 409 kts | 281° |
| 2026-05-09 03:56 | 40.10792 | -92.28820 | 29846 ft | 410 kts | 281° |
| 2026-05-09 03:56 | 40.11462 | -92.36247 | 29850 ft | 411 kts | 281° |
| 2026-05-09 03:57 | 40.12123 | -92.43619 | 29858 ft | 411 kts | 281° |
| 2026-05-09 03:57 | 40.12782 | -92.51060 | 29858 ft | 411 kts | 281° |
| 2026-05-09 03:58 | 40.13477 | -92.58483 | 29856 ft | 409 kts | 286° |
| 2026-05-09 03:58 | 40.15074 | -92.65566 | 29857 ft | 405 kts | 292° |
| 2026-05-09 03:59 | 40.16786 | -92.72555 | 29854 ft | 405 kts | 293° |
| 2026-05-09 03:59 | 40.18491 | -92.79597 | 29849 ft | 405 kts | 293° |
| 2026-05-09 04:00 | 40.20184 | -92.86588 | 29847 ft | 405 kts | 294° |
| 2026-05-09 04:00 | 40.21881 | -92.93644 | 29836 ft | 405 kts | 294° |
| 2026-05-09 04:01 | 40.23562 | -93.00656 | 29833 ft | 405 kts | 294° |
| 2026-05-09 04:01 | 40.25256 | -93.07707 | 29828 ft | 405 kts | 294° |
| 2026-05-09 04:02 | 40.26940 | -93.14748 | 29831 ft | 404 kts | 294° |
| 2026-05-09 04:02 | 40.28608 | -93.21737 | 29830 ft | 404 kts | 294° |
| 2026-05-09 04:03 | 40.30281 | -93.28765 | 29828 ft | 403 kts | 294° |
| 2026-05-09 04:03 | 40.31940 | -93.35793 | 29841 ft | 402 kts | 295° |
| 2026-05-09 04:04 | 40.33581 | -93.42735 | 29833 ft | 400 kts | 294° |
| 2026-05-09 04:04 | 40.35226 | -93.49723 | 29830 ft | 400 kts | 294° |
| 2026-05-09 04:05 | 40.36864 | -93.56703 | 29836 ft | 400 kts | 294° |
| 2026-05-09 04:05 | 40.38490 | -93.63642 | 29834 ft | 400 kts | 294° |
| 2026-05-09 04:06 | 40.40120 | -93.70626 | 29827 ft | 400 kts | 294° |
| 2026-05-09 04:06 | 40.41743 | -93.77608 | 29837 ft | 400 kts | 293° |
| 2026-05-09 04:07 | 40.43366 | -93.84591 | 29840 ft | 400 kts | 293° |
| 2026-05-09 04:07 | 40.44990 | -93.91574 | 29836 ft | 400 kts | 292° |
| 2026-05-09 04:08 | 40.46604 | -93.98567 | 29834 ft | 399 kts | 292° |
| 2026-05-09 04:08 | 40.48203 | -94.05524 | 29831 ft | 400 kts | 292° |
| 2026-05-09 04:09 | 40.49810 | -94.12533 | 29824 ft | 400 kts | 292° |
| 2026-05-09 04:09 | 40.51398 | -94.19498 | 29824 ft | 400 kts | 292° |
| 2026-05-09 04:10 | 40.52988 | -94.26508 | 29823 ft | 400 kts | 291° |
| 2026-05-09 04:10 | 40.54581 | -94.33538 | 29821 ft | 400 kts | 291° |
| 2026-05-09 04:11 | 40.56163 | -94.40509 | 29812 ft | 400 kts | 291° |
| 2026-05-09 04:11 | 40.57749 | -94.47535 | 29816 ft | 400 kts | 291° |
| 2026-05-09 04:12 | 40.59059 | -94.53370 | 29818 ft | 400 kts | 291° |
| 2026-05-09 04:12 | 40.60634 | -94.60408 | 29820 ft | 400 kts | 291° |
| 2026-05-09 04:13 | 40.62208 | -94.67445 | 29820 ft | 400 kts | 291° |